sensor_id;sensor_type;location;lat;lon;timestamp;temperature;humidity
59961;DHT22;55902;-37.980;-63.602;2023-09-19T00:01:35;10.90;48.30
59961;DHT22;55902;-37.980;-63.602;2023-09-19T00:04:02;10.80;48.20
59961;DHT22;55902;-37.980;-63.602;2023-09-19T00:06:30;10.80;49.00
59961;DHT22;55902;-37.980;-63.602;2023-09-19T00:08:58;10.70;49.20
59961;DHT22;55902;-37.980;-63.602;2023-09-19T00:11:26;10.60;49.20
59961;DHT22;55902;-37.980;-63.602;2023-09-19T00:13:53;10.50;49.50
59961;DHT22;55902;-37.980;-63.602;2023-09-19T00:16:20;10.40;49.60
59961;DHT22;55902;-37.980;-63.602;2023-09-19T00:18:48;10.20;50.70
59961;DHT22;55902;-37.980;-63.602;2023-09-19T00:21:18;10.10;50.60
59961;DHT22;55902;-37.980;-63.602;2023-09-19T00:23:48;10.00;51.20
59961;DHT22;55902;-37.980;-63.602;2023-09-19T00:26:17;9.90;51.60
59961;DHT22;55902;-37.980;-63.602;2023-09-19T00:28:44;9.80;52.20
59961;DHT22;55902;-37.980;-63.602;2023-09-19T00:31:11;9.80;52.10
59961;DHT22;55902;-37.980;-63.602;2023-09-19T00:33:39;9.80;51.80
59961;DHT22;55902;-37.980;-63.602;2023-09-19T00:36:05;9.70;51.60
59961;DHT22;55902;-37.980;-63.602;2023-09-19T00:38:32;9.80;51.70
59961;DHT22;55902;-37.980;-63.602;2023-09-19T00:41:00;9.80;52.10
59961;DHT22;55902;-37.980;-63.602;2023-09-19T00:43:27;9.80;52.20
59961;DHT22;55902;-37.980;-63.602;2023-09-19T00:45:55;9.80;52.20
59961;DHT22;55902;-37.980;-63.602;2023-09-19T00:48:23;9.70;51.90
59961;DHT22;55902;-37.980;-63.602;2023-09-19T00:50:51;9.70;52.50
59961;DHT22;55902;-37.980;-63.602;2023-09-19T00:53:21;9.70;52.70
59961;DHT22;55902;-37.980;-63.602;2023-09-19T00:55:51;9.70;52.40
59961;DHT22;55902;-37.980;-63.602;2023-09-19T00:58:19;9.60;53.00
59961;DHT22;55902;-37.980;-63.602;2023-09-19T01:00:48;9.60;51.70
59961;DHT22;55902;-37.980;-63.602;2023-09-19T01:03:17;9.50;53.20
59961;DHT22;55902;-37.980;-63.602;2023-09-19T01:05:44;9.40;53.30
59961;DHT22;55902;-37.980;-63.602;2023-09-19T01:08:11;9.30;52.30
59961;DHT22;55902;-37.980;-63.602;2023-09-19T01:10:43;9.30;53.60
59961;DHT22;55902;-37.980;-63.602;2023-09-19T01:22:14;9.10;52.60
59961;DHT22;55902;-37.980;-63.602;2023-09-19T01:28:25;9.00;52.60
59961;DHT22;55902;-37.980;-63.602;2023-09-19T01:30:57;9.00;52.70
59961;DHT22;55902;-37.980;-63.602;2023-09-19T01:33:25;9.00;53.30
59961;DHT22;55902;-37.980;-63.602;2023-09-19T01:35:53;8.90;53.70
59961;DHT22;55902;-37.980;-63.602;2023-09-19T01:38:22;8.90;54.00
59961;DHT22;55902;-37.980;-63.602;2023-09-19T01:41:00;8.90;53.60
59961;DHT22;55902;-37.980;-63.602;2023-09-19T02:00:09;8.80;53.80
59961;DHT22;55902;-37.980;-63.602;2023-09-19T02:02:46;8.70;54.00
59961;DHT22;55902;-37.980;-63.602;2023-09-19T02:05:25;8.70;54.40
59961;DHT22;55902;-37.980;-63.602;2023-09-19T02:07:54;8.70;53.60
59961;DHT22;55902;-37.980;-63.602;2023-09-19T02:10:22;8.70;54.10
59961;DHT22;55902;-37.980;-63.602;2023-09-19T02:12:50;8.70;55.00
59961;DHT22;55902;-37.980;-63.602;2023-09-19T02:15:17;8.60;54.80
59961;DHT22;55902;-37.980;-63.602;2023-09-19T02:17:44;8.60;55.00
59961;DHT22;55902;-37.980;-63.602;2023-09-19T02:30:18;8.20;57.50
59961;DHT22;55902;-37.980;-63.602;2023-09-19T02:32:47;8.10;57.70
59961;DHT22;55902;-37.980;-63.602;2023-09-19T02:35:15;8.10;58.80
59961;DHT22;55902;-37.980;-63.602;2023-09-19T02:37:43;8.00;57.90
59961;DHT22;55902;-37.980;-63.602;2023-09-19T02:40:11;8.00;59.80
59961;DHT22;55902;-37.980;-63.602;2023-09-19T02:42:55;7.90;59.50
59961;DHT22;55902;-37.980;-63.602;2023-09-19T02:45:22;7.90;61.10
59961;DHT22;55902;-37.980;-63.602;2023-09-19T02:47:50;7.90;59.60
59961;DHT22;55902;-37.980;-63.602;2023-09-19T02:50:17;7.90;61.50
59961;DHT22;55902;-37.980;-63.602;2023-09-19T02:52:45;7.90;61.30
59961;DHT22;55902;-37.980;-63.602;2023-09-19T02:55:16;7.90;61.90
59961;DHT22;55902;-37.980;-63.602;2023-09-19T02:57:50;7.90;62.50
59961;DHT22;55902;-37.980;-63.602;2023-09-19T03:00:18;7.90;62.80
59961;DHT22;55902;-37.980;-63.602;2023-09-19T03:05:17;7.80;63.50
59961;DHT22;55902;-37.980;-63.602;2023-09-19T03:07:44;7.80;64.00
59961;DHT22;55902;-37.980;-63.602;2023-09-19T03:10:18;7.80;63.30
59961;DHT22;55902;-37.980;-63.602;2023-09-19T03:12:47;7.80;64.40
59961;DHT22;55902;-37.980;-63.602;2023-09-19T03:15:15;7.80;64.20
59961;DHT22;55902;-37.980;-63.602;2023-09-19T03:17:45;7.80;65.50
59961;DHT22;55902;-37.980;-63.602;2023-09-19T03:20:14;7.70;65.80
59961;DHT22;55902;-37.980;-63.602;2023-09-19T03:22:44;7.70;66.40
59961;DHT22;55902;-37.980;-63.602;2023-09-19T03:25:12;7.70;66.00
59961;DHT22;55902;-37.980;-63.602;2023-09-19T03:27:40;7.70;65.90
59961;DHT22;55902;-37.980;-63.602;2023-09-19T03:30:08;7.60;66.40
59961;DHT22;55902;-37.980;-63.602;2023-09-19T03:32:44;7.60;66.80
59961;DHT22;55902;-37.980;-63.602;2023-09-19T03:35:12;7.50;67.90
59961;DHT22;55902;-37.980;-63.602;2023-09-19T03:37:43;7.50;68.10
59961;DHT22;55902;-37.980;-63.602;2023-09-19T03:40:10;7.50;67.30
59961;DHT22;55902;-37.980;-63.602;2023-09-19T03:42:43;7.40;68.20
59961;DHT22;55902;-37.980;-63.602;2023-09-19T03:45:10;7.50;67.60
59961;DHT22;55902;-37.980;-63.602;2023-09-19T03:47:42;7.40;70.10
59961;DHT22;55902;-37.980;-63.602;2023-09-19T03:50:12;7.40;68.60
59961;DHT22;55902;-37.980;-63.602;2023-09-19T03:52:41;7.40;69.70
59961;DHT22;55902;-37.980;-63.602;2023-09-19T03:55:08;7.40;69.70
59961;DHT22;55902;-37.980;-63.602;2023-09-19T03:57:36;7.40;70.40
59961;DHT22;55902;-37.980;-63.602;2023-09-19T04:00:04;7.40;69.60
59961;DHT22;55902;-37.980;-63.602;2023-09-19T04:02:38;7.40;68.00
59961;DHT22;55902;-37.980;-63.602;2023-09-19T04:05:06;7.40;69.10
59961;DHT22;55902;-37.980;-63.602;2023-09-19T04:07:33;7.30;69.70
59961;DHT22;55902;-37.980;-63.602;2023-09-19T04:10:00;7.30;70.00
59961;DHT22;55902;-37.980;-63.602;2023-09-19T04:12:28;7.20;69.40
59961;DHT22;55902;-37.980;-63.602;2023-09-19T04:14:54;7.20;70.00
59961;DHT22;55902;-37.980;-63.602;2023-09-19T04:17:21;7.20;70.00
59961;DHT22;55902;-37.980;-63.602;2023-09-19T04:19:49;7.10;70.20
59961;DHT22;55902;-37.980;-63.602;2023-09-19T04:22:16;7.10;71.20
59961;DHT22;55902;-37.980;-63.602;2023-09-19T04:24:43;7.10;71.50
59961;DHT22;55902;-37.980;-63.602;2023-09-19T04:27:10;7.10;71.20
59961;DHT22;55902;-37.980;-63.602;2023-09-19T04:29:41;7.10;72.20
59961;DHT22;55902;-37.980;-63.602;2023-09-19T04:32:10;7.10;72.70
59961;DHT22;55902;-37.980;-63.602;2023-09-19T04:34:39;7.10;72.30
59961;DHT22;55902;-37.980;-63.602;2023-09-19T04:37:06;7.20;72.70
59961;DHT22;55902;-37.980;-63.602;2023-09-19T04:39:33;7.20;71.70
59961;DHT22;55902;-37.980;-63.602;2023-09-19T04:42:00;7.30;71.40
59961;DHT22;55902;-37.980;-63.602;2023-09-19T04:44:27;7.30;71.90
59961;DHT22;55902;-37.980;-63.602;2023-09-19T04:46:54;7.40;71.40
59961;DHT22;55902;-37.980;-63.602;2023-09-19T04:49:22;7.30;71.50
59961;DHT22;55902;-37.980;-63.602;2023-09-19T04:51:49;7.30;71.00
59961;DHT22;55902;-37.980;-63.602;2023-09-19T04:54:16;7.30;71.20
59961;DHT22;55902;-37.980;-63.602;2023-09-19T04:56:44;7.40;70.30
59961;DHT22;55902;-37.980;-63.602;2023-09-19T04:59:11;7.30;70.10
59961;DHT22;55902;-37.980;-63.602;2023-09-19T05:01:38;7.30;70.30
59961;DHT22;55902;-37.980;-63.602;2023-09-19T05:04:05;7.30;71.00
59961;DHT22;55902;-37.980;-63.602;2023-09-19T05:06:32;7.20;71.60
59961;DHT22;55902;-37.980;-63.602;2023-09-19T05:09:02;7.30;70.90
59961;DHT22;55902;-37.980;-63.602;2023-09-19T05:11:31;7.30;71.50
59961;DHT22;55902;-37.980;-63.602;2023-09-19T05:13:59;7.30;70.50
59961;DHT22;55902;-37.980;-63.602;2023-09-19T05:16:30;7.40;70.50
59961;DHT22;55902;-37.980;-63.602;2023-09-19T05:19:00;7.40;70.30
59961;DHT22;55902;-37.980;-63.602;2023-09-19T05:25:05;7.50;70.40
59961;DHT22;55902;-37.980;-63.602;2023-09-19T05:27:32;7.50;69.50
59961;DHT22;55902;-37.980;-63.602;2023-09-19T05:30:00;7.50;69.40
59961;DHT22;55902;-37.980;-63.602;2023-09-19T05:32:27;7.40;69.30
59961;DHT22;55902;-37.980;-63.602;2023-09-19T05:34:55;7.40;69.90
59961;DHT22;55902;-37.980;-63.602;2023-09-19T05:37:23;7.30;70.30
59961;DHT22;55902;-37.980;-63.602;2023-09-19T05:39:52;7.20;71.60
59961;DHT22;55902;-37.980;-63.602;2023-09-19T05:42:23;7.20;72.20
59961;DHT22;55902;-37.980;-63.602;2023-09-19T05:44:50;7.10;71.50
59961;DHT22;55902;-37.980;-63.602;2023-09-19T05:47:17;7.00;72.00
59961;DHT22;55902;-37.980;-63.602;2023-09-19T05:49:44;7.00;72.00
59961;DHT22;55902;-37.980;-63.602;2023-09-19T05:52:11;7.00;72.60
59961;DHT22;55902;-37.980;-63.602;2023-09-19T05:54:38;6.90;71.80
59961;DHT22;55902;-37.980;-63.602;2023-09-19T05:57:05;6.90;72.40
59961;DHT22;55902;-37.980;-63.602;2023-09-19T05:59:33;6.90;72.70
59961;DHT22;55902;-37.980;-63.602;2023-09-19T06:02:00;6.80;73.80
59961;DHT22;55902;-37.980;-63.602;2023-09-19T06:04:27;6.80;73.10
59961;DHT22;55902;-37.980;-63.602;2023-09-19T06:06:54;6.80;72.80
59961;DHT22;55902;-37.980;-63.602;2023-09-19T06:09:21;6.80;72.80
59961;DHT22;55902;-37.980;-63.602;2023-09-19T06:11:49;6.70;73.10
59961;DHT22;55902;-37.980;-63.602;2023-09-19T06:14:17;6.60;74.40
59961;DHT22;55902;-37.980;-63.602;2023-09-19T06:16:44;6.60;74.60
59961;DHT22;55902;-37.980;-63.602;2023-09-19T06:19:11;6.50;74.50
59961;DHT22;55902;-37.980;-63.602;2023-09-19T06:21:38;6.50;74.30
59961;DHT22;55902;-37.980;-63.602;2023-09-19T06:24:06;6.50;75.80
59961;DHT22;55902;-37.980;-63.602;2023-09-19T06:26:33;6.50;74.40
59961;DHT22;55902;-37.980;-63.602;2023-09-19T06:29:00;6.40;73.70
59961;DHT22;55902;-37.980;-63.602;2023-09-19T06:31:27;6.40;75.10
59961;DHT22;55902;-37.980;-63.602;2023-09-19T06:33:54;6.30;74.50
59961;DHT22;55902;-37.980;-63.602;2023-09-19T06:36:21;6.30;74.80
59961;DHT22;55902;-37.980;-63.602;2023-09-19T06:38:48;6.30;75.90
59961;DHT22;55902;-37.980;-63.602;2023-09-19T06:41:18;6.20;75.20
59961;DHT22;55902;-37.980;-63.602;2023-09-19T06:43:45;6.20;75.80
59961;DHT22;55902;-37.980;-63.602;2023-09-19T06:46:11;6.20;74.90
59961;DHT22;55902;-37.980;-63.602;2023-09-19T06:48:39;6.20;75.60
59961;DHT22;55902;-37.980;-63.602;2023-09-19T06:51:07;6.20;74.00
59961;DHT22;55902;-37.980;-63.602;2023-09-19T06:53:34;6.20;74.50
59961;DHT22;55902;-37.980;-63.602;2023-09-19T06:56:02;6.20;73.60
59961;DHT22;55902;-37.980;-63.602;2023-09-19T06:58:29;6.20;74.10
59961;DHT22;55902;-37.980;-63.602;2023-09-19T07:00:57;6.20;74.60
59961;DHT22;55902;-37.980;-63.602;2023-09-19T07:03:24;6.10;75.40
59961;DHT22;55902;-37.980;-63.602;2023-09-19T07:05:53;6.10;75.30
59961;DHT22;55902;-37.980;-63.602;2023-09-19T07:08:22;6.10;74.70
59961;DHT22;55902;-37.980;-63.602;2023-09-19T07:10:49;6.10;75.00
59961;DHT22;55902;-37.980;-63.602;2023-09-19T07:13:19;6.10;75.90
59961;DHT22;55902;-37.980;-63.602;2023-09-19T07:15:46;6.10;76.20
59961;DHT22;55902;-37.980;-63.602;2023-09-19T07:18:14;6.10;76.70
59961;DHT22;55902;-37.980;-63.602;2023-09-19T07:20:45;6.10;77.70
59961;DHT22;55902;-37.980;-63.602;2023-09-19T07:23:19;6.20;76.50
59961;DHT22;55902;-37.980;-63.602;2023-09-19T07:25:48;6.20;76.80
59961;DHT22;55902;-37.980;-63.602;2023-09-19T07:28:17;6.20;76.60
59961;DHT22;55902;-37.980;-63.602;2023-09-19T07:30:44;6.20;76.80
59961;DHT22;55902;-37.980;-63.602;2023-09-19T07:33:14;6.20;77.30
59961;DHT22;55902;-37.980;-63.602;2023-09-19T07:35:46;6.20;78.00
59961;DHT22;55902;-37.980;-63.602;2023-09-19T07:38:13;6.20;77.30
59961;DHT22;55902;-37.980;-63.602;2023-09-19T07:40:40;6.20;78.20
59961;DHT22;55902;-37.980;-63.602;2023-09-19T07:43:07;6.10;78.00
59961;DHT22;55902;-37.980;-63.602;2023-09-19T07:45:35;6.10;78.70
59961;DHT22;55902;-37.980;-63.602;2023-09-19T07:48:02;6.10;78.70
59961;DHT22;55902;-37.980;-63.602;2023-09-19T07:50:30;6.10;78.70
59961;DHT22;55902;-37.980;-63.602;2023-09-19T07:52:58;6.10;79.80
59961;DHT22;55902;-37.980;-63.602;2023-09-19T07:55:25;6.10;79.00
59961;DHT22;55902;-37.980;-63.602;2023-09-19T07:57:55;6.10;80.60
59961;DHT22;55902;-37.980;-63.602;2023-09-19T08:00:23;6.10;80.90
59961;DHT22;55902;-37.980;-63.602;2023-09-19T08:02:50;6.10;81.60
59961;DHT22;55902;-37.980;-63.602;2023-09-19T08:05:18;6.10;81.10
59961;DHT22;55902;-37.980;-63.602;2023-09-19T08:07:45;6.10;81.90
59961;DHT22;55902;-37.980;-63.602;2023-09-19T08:10:16;6.10;81.90
59961;DHT22;55902;-37.980;-63.602;2023-09-19T08:12:45;6.10;82.60
59961;DHT22;55902;-37.980;-63.602;2023-09-19T08:15:14;6.10;82.90
59961;DHT22;55902;-37.980;-63.602;2023-09-19T08:17:41;6.10;83.00
59961;DHT22;55902;-37.980;-63.602;2023-09-19T08:20:09;6.10;83.00
59961;DHT22;55902;-37.980;-63.602;2023-09-19T08:22:46;6.20;82.80
59961;DHT22;55902;-37.980;-63.602;2023-09-19T08:25:17;6.20;82.80
59961;DHT22;55902;-37.980;-63.602;2023-09-19T08:27:45;6.20;83.50
59961;DHT22;55902;-37.980;-63.602;2023-09-19T08:30:17;6.20;82.40
59961;DHT22;55902;-37.980;-63.602;2023-09-19T08:33:08;6.20;83.00
59961;DHT22;55902;-37.980;-63.602;2023-09-19T08:35:35;6.10;83.40
59961;DHT22;55902;-37.980;-63.602;2023-09-19T08:38:02;6.20;83.10
59961;DHT22;55902;-37.980;-63.602;2023-09-19T08:40:36;6.10;83.70
59961;DHT22;55902;-37.980;-63.602;2023-09-19T08:43:05;6.10;83.90
59961;DHT22;55902;-37.980;-63.602;2023-09-19T08:45:34;6.10;84.60
59961;DHT22;55902;-37.980;-63.602;2023-09-19T08:48:27;6.00;84.70
59961;DHT22;55902;-37.980;-63.602;2023-09-19T08:51:07;6.10;84.40
59961;DHT22;55902;-37.980;-63.602;2023-09-19T08:53:51;6.00;84.90
59961;DHT22;55902;-37.980;-63.602;2023-09-19T08:56:19;6.00;85.20
59961;DHT22;55902;-37.980;-63.602;2023-09-19T09:01:23;6.00;84.90
59961;DHT22;55902;-37.980;-63.602;2023-09-19T09:04:00;6.00;85.10
59961;DHT22;55902;-37.980;-63.602;2023-09-19T09:06:28;6.00;85.70
59961;DHT22;55902;-37.980;-63.602;2023-09-19T09:08:56;6.00;85.30
59961;DHT22;55902;-37.980;-63.602;2023-09-19T09:11:23;6.00;85.70
59961;DHT22;55902;-37.980;-63.602;2023-09-19T09:13:54;6.00;85.90
59961;DHT22;55902;-37.980;-63.602;2023-09-19T09:16:21;6.00;86.10
59961;DHT22;55902;-37.980;-63.602;2023-09-19T09:18:52;6.10;86.10
59961;DHT22;55902;-37.980;-63.602;2023-09-19T09:21:22;6.10;87.10
59961;DHT22;55902;-37.980;-63.602;2023-09-19T09:23:50;6.10;86.70
59961;DHT22;55902;-37.980;-63.602;2023-09-19T09:29:48;6.20;87.60
59961;DHT22;55902;-37.980;-63.602;2023-09-19T09:32:22;6.20;87.30
59961;DHT22;55902;-37.980;-63.602;2023-09-19T09:34:52;6.30;87.40
59961;DHT22;55902;-37.980;-63.602;2023-09-19T09:37:20;6.30;87.20
59961;DHT22;55902;-37.980;-63.602;2023-09-19T09:39:56;6.30;88.40
59961;DHT22;55902;-37.980;-63.602;2023-09-19T09:42:35;6.30;87.20
59961;DHT22;55902;-37.980;-63.602;2023-09-19T09:45:16;6.30;88.60
59961;DHT22;55902;-37.980;-63.602;2023-09-19T09:47:48;6.30;88.00
59961;DHT22;55902;-37.980;-63.602;2023-09-19T09:50:26;6.30;89.10
59961;DHT22;55902;-37.980;-63.602;2023-09-19T09:53:24;6.30;89.30
59961;DHT22;55902;-37.980;-63.602;2023-09-19T09:56:09;6.30;89.10
59961;DHT22;55902;-37.980;-63.602;2023-09-19T09:58:50;6.30;89.50
59961;DHT22;55902;-37.980;-63.602;2023-09-19T10:01:21;6.30;89.10
59961;DHT22;55902;-37.980;-63.602;2023-09-19T10:03:58;6.30;89.60
59961;DHT22;55902;-37.980;-63.602;2023-09-19T10:06:26;6.40;89.40
59961;DHT22;55902;-37.980;-63.602;2023-09-19T10:09:08;6.30;90.00
59961;DHT22;55902;-37.980;-63.602;2023-09-19T10:11:47;6.30;90.10
59961;DHT22;55902;-37.980;-63.602;2023-09-19T10:14:26;6.30;90.50
59961;DHT22;55902;-37.980;-63.602;2023-09-19T10:16:58;6.30;90.70
59961;DHT22;55902;-37.980;-63.602;2023-09-19T10:19:37;6.30;90.80
59961;DHT22;55902;-37.980;-63.602;2023-09-19T10:22:14;6.40;90.60
59961;DHT22;55902;-37.980;-63.602;2023-09-19T10:24:44;6.40;90.80
59961;DHT22;55902;-37.980;-63.602;2023-09-19T10:27:13;6.40;91.00
59961;DHT22;55902;-37.980;-63.602;2023-09-19T10:29:44;6.50;91.20
59961;DHT22;55902;-37.980;-63.602;2023-09-19T10:32:16;6.40;91.70
59961;DHT22;55902;-37.980;-63.602;2023-09-19T10:34:47;6.40;91.70
59961;DHT22;55902;-37.980;-63.602;2023-09-19T10:37:17;6.50;92.00
59961;DHT22;55902;-37.980;-63.602;2023-09-19T10:39:48;6.50;92.20
59961;DHT22;55902;-37.980;-63.602;2023-09-19T10:42:19;6.50;92.30
59961;DHT22;55902;-37.980;-63.602;2023-09-19T10:44:52;6.50;92.40
59961;DHT22;55902;-37.980;-63.602;2023-09-19T10:47:22;6.60;92.80
59961;DHT22;55902;-37.980;-63.602;2023-09-19T10:49:50;6.60;92.90
59961;DHT22;55902;-37.980;-63.602;2023-09-19T10:52:22;6.60;93.00
59961;DHT22;55902;-37.980;-63.602;2023-09-19T10:54:53;6.60;93.20
59961;DHT22;55902;-37.980;-63.602;2023-09-19T10:57:24;6.70;93.40
59961;DHT22;55902;-37.980;-63.602;2023-09-19T11:00:07;6.80;93.20
59961;DHT22;55902;-37.980;-63.602;2023-09-19T11:05:39;6.90;93.80
59961;DHT22;55902;-37.980;-63.602;2023-09-19T11:08:08;7.00;94.20
59961;DHT22;55902;-37.980;-63.602;2023-09-19T11:10:46;7.10;94.40
59961;DHT22;55902;-37.980;-63.602;2023-09-19T11:13:30;7.20;94.20
59961;DHT22;55902;-37.980;-63.602;2023-09-19T11:26:44;7.70;93.30
59961;DHT22;55902;-37.980;-63.602;2023-09-19T11:29:27;7.70;93.30
59961;DHT22;55902;-37.980;-63.602;2023-09-19T11:31:56;7.80;93.20
59961;DHT22;55902;-37.980;-63.602;2023-09-19T11:40:06;8.40;92.00
59961;DHT22;55902;-37.980;-63.602;2023-09-19T11:42:52;8.80;91.30
59961;DHT22;55902;-37.980;-63.602;2023-09-19T11:48:35;9.20;90.30
59961;DHT22;55902;-37.980;-63.602;2023-09-19T11:51:42;9.30;90.00
59961;DHT22;55902;-37.980;-63.602;2023-09-19T11:55:05;9.40;89.80
59961;DHT22;55902;-37.980;-63.602;2023-09-19T12:02:03;9.90;87.90
59961;DHT22;55902;-37.980;-63.602;2023-09-19T12:05:10;10.30;86.90
59961;DHT22;55902;-37.980;-63.602;2023-09-19T12:07:44;10.70;85.40
59961;DHT22;55902;-37.980;-63.602;2023-09-19T12:10:14;10.90;84.50
59961;DHT22;55902;-37.980;-63.602;2023-09-19T12:12:50;11.00;83.50
59961;DHT22;55902;-37.980;-63.602;2023-09-19T12:15:31;11.10;83.40
59961;DHT22;55902;-37.980;-63.602;2023-09-19T12:18:05;11.10;82.20
59961;DHT22;55902;-37.980;-63.602;2023-09-19T12:20:45;11.00;82.30
59961;DHT22;55902;-37.980;-63.602;2023-09-19T12:23:14;10.90;82.40
59961;DHT22;55902;-37.980;-63.602;2023-09-19T12:25:45;10.80;82.30
59961;DHT22;55902;-37.980;-63.602;2023-09-19T12:28:17;10.60;83.10
59961;DHT22;55902;-37.980;-63.602;2023-09-19T12:30:45;10.60;83.30
59961;DHT22;55902;-37.980;-63.602;2023-09-19T12:33:19;10.70;83.20
59961;DHT22;55902;-37.980;-63.602;2023-09-19T12:36:22;10.90;82.70
59961;DHT22;55902;-37.980;-63.602;2023-09-19T12:38:56;11.30;81.60
59961;DHT22;55902;-37.980;-63.602;2023-09-19T12:41:26;11.30;81.40
59961;DHT22;55902;-37.980;-63.602;2023-09-19T12:43:54;11.30;81.20
59961;DHT22;55902;-37.980;-63.602;2023-09-19T12:46:24;11.30;81.20
59961;DHT22;55902;-37.980;-63.602;2023-09-19T12:49:16;11.20;81.00
59961;DHT22;55902;-37.980;-63.602;2023-09-19T12:51:49;11.30;81.90
59961;DHT22;55902;-37.980;-63.602;2023-09-19T12:54:48;11.40;80.90
59961;DHT22;55902;-37.980;-63.602;2023-09-19T12:57:24;11.40;80.80
59961;DHT22;55902;-37.980;-63.602;2023-09-19T12:59:55;11.50;80.80
59961;DHT22;55902;-37.980;-63.602;2023-09-19T13:02:24;11.50;80.50
59961;DHT22;55902;-37.980;-63.602;2023-09-19T13:04:55;11.50;80.20
59961;DHT22;55902;-37.980;-63.602;2023-09-19T13:07:44;11.40;80.40
59961;DHT22;55902;-37.980;-63.602;2023-09-19T13:10:15;11.80;80.40
59961;DHT22;55902;-37.980;-63.602;2023-09-19T13:12:43;12.20;79.60
59961;DHT22;55902;-37.980;-63.602;2023-09-19T13:15:15;12.30;78.30
59961;DHT22;55902;-37.980;-63.602;2023-09-19T13:17:47;12.50;77.80
59961;DHT22;55902;-37.980;-63.602;2023-09-19T13:20:26;12.60;77.10
59961;DHT22;55902;-37.980;-63.602;2023-09-19T13:22:58;12.90;77.90
59961;DHT22;55902;-37.980;-63.602;2023-09-19T13:25:38;13.20;76.50
59961;DHT22;55902;-37.980;-63.602;2023-09-19T13:28:06;13.50;75.70
59961;DHT22;55902;-37.980;-63.602;2023-09-19T13:30:37;13.60;74.00
59961;DHT22;55902;-37.980;-63.602;2023-09-19T13:33:10;13.40;73.40
59961;DHT22;55902;-37.980;-63.602;2023-09-19T13:35:38;13.50;73.30
59961;DHT22;55902;-37.980;-63.602;2023-09-19T13:38:13;13.50;73.60
59961;DHT22;55902;-37.980;-63.602;2023-09-19T13:40:41;13.60;72.60
59961;DHT22;55902;-37.980;-63.602;2023-09-19T13:43:11;13.60;71.50
59961;DHT22;55902;-37.980;-63.602;2023-09-19T13:45:38;13.50;71.50
59961;DHT22;55902;-37.980;-63.602;2023-09-19T13:48:09;13.50;70.30
59961;DHT22;55902;-37.980;-63.602;2023-09-19T13:50:39;13.30;69.80
59961;DHT22;55902;-37.980;-63.602;2023-09-19T13:53:09;13.20;70.30
59961;DHT22;55902;-37.980;-63.602;2023-09-19T13:55:38;13.20;71.00
59961;DHT22;55902;-37.980;-63.602;2023-09-19T13:58:06;13.20;70.60
59961;DHT22;55902;-37.980;-63.602;2023-09-19T14:00:38;13.20;71.70
59961;DHT22;55902;-37.980;-63.602;2023-09-19T14:03:05;13.30;70.40
59961;DHT22;55902;-37.980;-63.602;2023-09-19T14:05:33;13.40;70.10
59961;DHT22;55902;-37.980;-63.602;2023-09-19T14:08:00;13.60;70.10
59961;DHT22;55902;-37.980;-63.602;2023-09-19T14:10:30;13.80;69.40
59961;DHT22;55902;-37.980;-63.602;2023-09-19T14:12:59;13.90;68.90
59961;DHT22;55902;-37.980;-63.602;2023-09-19T14:15:28;14.10;68.60
59961;DHT22;55902;-37.980;-63.602;2023-09-19T14:17:57;14.30;67.40
59961;DHT22;55902;-37.980;-63.602;2023-09-19T14:20:26;14.60;67.10
59961;DHT22;55902;-37.980;-63.602;2023-09-19T14:22:54;14.80;65.30
59961;DHT22;55902;-37.980;-63.602;2023-09-19T14:25:21;14.90;63.20
59961;DHT22;55902;-37.980;-63.602;2023-09-19T14:27:48;15.00;62.50
59961;DHT22;55902;-37.980;-63.602;2023-09-19T14:30:16;15.10;63.00
59961;DHT22;55902;-37.980;-63.602;2023-09-19T14:32:43;15.30;62.20
59961;DHT22;55902;-37.980;-63.602;2023-09-19T14:35:10;15.20;62.00
59961;DHT22;55902;-37.980;-63.602;2023-09-19T14:37:37;15.30;63.00
59961;DHT22;55902;-37.980;-63.602;2023-09-19T14:40:06;15.70;61.40
59961;DHT22;55902;-37.980;-63.602;2023-09-19T14:42:46;15.80;59.50
59961;DHT22;55902;-37.980;-63.602;2023-09-19T14:45:13;15.90;59.60
59961;DHT22;55902;-37.980;-63.602;2023-09-19T14:47:46;15.80;59.30
59961;DHT22;55902;-37.980;-63.602;2023-09-19T14:50:14;15.70;59.40
59961;DHT22;55902;-37.980;-63.602;2023-09-19T14:52:42;15.40;59.70
59961;DHT22;55902;-37.980;-63.602;2023-09-19T14:55:10;15.50;60.40
59961;DHT22;55902;-37.980;-63.602;2023-09-19T14:57:43;16.00;59.80
59961;DHT22;55902;-37.980;-63.602;2023-09-19T15:00:13;16.10;58.60
59961;DHT22;55902;-37.980;-63.602;2023-09-19T15:02:40;16.20;58.30
59961;DHT22;55902;-37.980;-63.602;2023-09-19T15:05:07;16.10;58.10
59961;DHT22;55902;-37.980;-63.602;2023-09-19T15:07:36;16.00;58.80
59961;DHT22;55902;-37.980;-63.602;2023-09-19T15:10:07;16.00;59.10
59961;DHT22;55902;-37.980;-63.602;2023-09-19T15:12:39;16.00;59.30
59961;DHT22;55902;-37.980;-63.602;2023-09-19T15:15:06;16.10;58.10
59961;DHT22;55902;-37.980;-63.602;2023-09-19T15:17:36;16.20;57.70
59961;DHT22;55902;-37.980;-63.602;2023-09-19T15:20:08;16.40;57.40
59961;DHT22;55902;-37.980;-63.602;2023-09-19T15:22:46;16.60;57.90
59961;DHT22;55902;-37.980;-63.602;2023-09-19T15:25:22;16.80;56.70
59961;DHT22;55902;-37.980;-63.602;2023-09-19T15:27:50;16.90;56.00
59961;DHT22;55902;-37.980;-63.602;2023-09-19T15:30:17;16.80;56.40
59961;DHT22;55902;-37.980;-63.602;2023-09-19T15:32:44;16.80;56.20
59961;DHT22;55902;-37.980;-63.602;2023-09-19T15:35:11;16.50;56.20
59961;DHT22;55902;-37.980;-63.602;2023-09-19T15:37:41;16.60;56.30
59961;DHT22;55902;-37.980;-63.602;2023-09-19T15:40:09;16.50;56.30
59961;DHT22;55902;-37.980;-63.602;2023-09-19T15:42:38;16.40;56.60
59961;DHT22;55902;-37.980;-63.602;2023-09-19T15:45:06;16.30;56.90
59961;DHT22;55902;-37.980;-63.602;2023-09-19T15:47:36;16.60;56.60
59961;DHT22;55902;-37.980;-63.602;2023-09-19T15:50:04;16.90;56.30
59961;DHT22;55902;-37.980;-63.602;2023-09-19T15:52:32;16.90;55.90
59961;DHT22;55902;-37.980;-63.602;2023-09-19T15:54:59;17.00;56.00
59961;DHT22;55902;-37.980;-63.602;2023-09-19T16:01:05;16.60;55.80
59961;DHT22;55902;-37.980;-63.602;2023-09-19T16:03:39;16.40;55.70
59961;DHT22;55902;-37.980;-63.602;2023-09-19T16:06:11;16.40;55.90
59961;DHT22;55902;-37.980;-63.602;2023-09-19T16:08:45;16.40;55.10
59961;DHT22;55902;-37.980;-63.602;2023-09-19T16:11:17;16.60;55.20
59961;DHT22;55902;-37.980;-63.602;2023-09-19T16:13:54;16.70;54.40
59961;DHT22;55902;-37.980;-63.602;2023-09-19T16:16:28;17.00;54.50
59961;DHT22;55902;-37.980;-63.602;2023-09-19T16:19:01;17.00;54.30
59961;DHT22;55902;-37.980;-63.602;2023-09-19T16:21:31;17.00;54.10
59961;DHT22;55902;-37.980;-63.602;2023-09-19T16:24:20;16.70;54.50
59961;DHT22;55902;-37.980;-63.602;2023-09-19T16:26:47;16.70;54.30
59961;DHT22;55902;-37.980;-63.602;2023-09-19T16:29:15;16.60;55.00
59961;DHT22;55902;-37.980;-63.602;2023-09-19T16:31:45;16.80;55.00
59961;DHT22;55902;-37.980;-63.602;2023-09-19T16:34:16;16.90;55.10
59961;DHT22;55902;-37.980;-63.602;2023-09-19T16:36:44;16.90;54.20
59961;DHT22;55902;-37.980;-63.602;2023-09-19T16:39:11;16.70;53.70
59961;DHT22;55902;-37.980;-63.602;2023-09-19T16:41:38;16.70;53.80